sensor_id;sensor_type;location;lat;lon;timestamp;P1;durP1;ratioP1;P2;durP2;ratioP2
13051;SDS011;6592;47.484;9.726;2022-10-18T00:01:46;4.25;;;1.80;;
13051;SDS011;6592;47.484;9.726;2022-10-18T00:04:15;3.65;;;1.67;;
13051;SDS011;6592;47.484;9.726;2022-10-18T00:06:43;3.20;;;1.70;;
13051;SDS011;6592;47.484;9.726;2022-10-18T00:09:13;4.88;;;1.70;;
13051;SDS011;6592;47.484;9.726;2022-10-18T00:11:41;5.32;;;1.77;;
13051;SDS011;6592;47.484;9.726;2022-10-18T00:14:09;4.43;;;1.90;;
13051;SDS011;6592;47.484;9.726;2022-10-18T00:16:38;4.10;;;1.67;;
13051;SDS011;6592;47.484;9.726;2022-10-18T00:19:06;3.30;;;1.55;;
13051;SDS011;6592;47.484;9.726;2022-10-18T00:21:34;3.03;;;1.52;;
13051;SDS011;6592;47.484;9.726;2022-10-18T00:24:03;3.72;;;1.60;;
13051;SDS011;6592;47.484;9.726;2022-10-18T00:26:33;4.60;;;1.77;;
13051;SDS011;6592;47.484;9.726;2022-10-18T00:29:03;3.92;;;1.85;;
13051;SDS011;6592;47.484;9.726;2022-10-18T00:31:33;2.92;;;1.45;;
13051;SDS011;6592;47.484;9.726;2022-10-18T00:34:02;4.05;;;1.45;;
13051;SDS011;6592;47.484;9.726;2022-10-18T00:36:32;3.30;;;1.55;;
13051;SDS011;6592;47.484;9.726;2022-10-18T00:39:01;3.83;;;1.52;;
13051;SDS011;6592;47.484;9.726;2022-10-18T00:41:31;2.97;;;1.60;;
13051;SDS011;6592;47.484;9.726;2022-10-18T00:44:03;4.13;;;1.52;;
13051;SDS011;6592;47.484;9.726;2022-10-18T00:46:34;5.07;;;1.20;;
13051;SDS011;6592;47.484;9.726;2022-10-18T00:49:04;3.30;;;1.40;;
13051;SDS011;6592;47.484;9.726;2022-10-18T00:51:35;4.40;;;1.45;;
13051;SDS011;6592;47.484;9.726;2022-10-18T00:54:09;5.40;;;1.65;;
13051;SDS011;6592;47.484;9.726;2022-10-18T00:56:40;5.05;;;1.67;;
13051;SDS011;6592;47.484;9.726;2022-10-18T00:59:10;3.05;;;1.63;;
13051;SDS011;6592;47.484;9.726;2022-10-18T01:01:40;4.13;;;1.33;;
13051;SDS011;6592;47.484;9.726;2022-10-18T01:04:08;4.75;;;1.50;;
13051;SDS011;6592;47.484;9.726;2022-10-18T01:06:38;3.72;;;1.70;;
13051;SDS011;6592;47.484;9.726;2022-10-18T01:09:15;4.72;;;1.60;;
13051;SDS011;6592;47.484;9.726;2022-10-18T01:12:00;3.72;;;1.50;;
13051;SDS011;6592;47.484;9.726;2022-10-18T01:14:42;4.15;;;1.60;;
13051;SDS011;6592;47.484;9.726;2022-10-18T01:17:17;4.78;;;1.58;;
13051;SDS011;6592;47.484;9.726;2022-10-18T01:22:49;4.15;;;1.70;;
13051;SDS011;6592;47.484;9.726;2022-10-18T01:25:28;4.47;;;1.50;;
13051;SDS011;6592;47.484;9.726;2022-10-18T01:28:08;5.53;;;1.75;;
13051;SDS011;6592;47.484;9.726;2022-10-18T01:30:49;3.92;;;1.58;;
13051;SDS011;6592;47.484;9.726;2022-10-18T01:33:24;3.58;;;1.40;;
13051;SDS011;6592;47.484;9.726;2022-10-18T01:35:59;3.83;;;1.60;;
13051;SDS011;6592;47.484;9.726;2022-10-18T01:38:32;2.78;;;1.40;;
13051;SDS011;6592;47.484;9.726;2022-10-18T01:41:03;4.25;;;1.50;;
13051;SDS011;6592;47.484;9.726;2022-10-18T01:43:40;6.03;;;1.70;;
13051;SDS011;6592;47.484;9.726;2022-10-18T01:46:14;4.07;;;1.80;;
13051;SDS011;6592;47.484;9.726;2022-10-18T01:48:46;7.32;;;1.95;;
13051;SDS011;6592;47.484;9.726;2022-10-18T01:51:17;3.63;;;1.67;;
13051;SDS011;6592;47.484;9.726;2022-10-18T01:53:46;4.03;;;1.60;;
13051;SDS011;6592;47.484;9.726;2022-10-18T01:59:04;2.97;;;1.20;;
13051;SDS011;6592;47.484;9.726;2022-10-18T02:01:48;3.13;;;1.50;;
13051;SDS011;6592;47.484;9.726;2022-10-18T02:04:22;6.60;;;1.77;;
13051;SDS011;6592;47.484;9.726;2022-10-18T02:06:56;4.50;;;1.80;;
13051;SDS011;6592;47.484;9.726;2022-10-18T02:09:32;3.35;;;1.90;;
13051;SDS011;6592;47.484;9.726;2022-10-18T02:12:05;3.35;;;1.70;;
13051;SDS011;6592;47.484;9.726;2022-10-18T02:14:37;2.88;;;1.58;;
13051;SDS011;6592;47.484;9.726;2022-10-18T02:17:10;4.50;;;1.95;;
13051;SDS011;6592;47.484;9.726;2022-10-18T02:19:42;3.50;;;1.63;;
13051;SDS011;6592;47.484;9.726;2022-10-18T02:22:13;3.78;;;1.77;;
13051;SDS011;6592;47.484;9.726;2022-10-18T02:24:45;4.47;;;1.40;;
13051;SDS011;6592;47.484;9.726;2022-10-18T02:27:17;4.22;;;1.45;;
13051;SDS011;6592;47.484;9.726;2022-10-18T02:29:46;3.65;;;1.30;;
13051;SDS011;6592;47.484;9.726;2022-10-18T02:32:17;5.45;;;1.38;;
13051;SDS011;6592;47.484;9.726;2022-10-18T02:34:51;2.45;;;1.30;;
13051;SDS011;6592;47.484;9.726;2022-10-18T02:37:24;4.68;;;1.35;;
13051;SDS011;6592;47.484;9.726;2022-10-18T02:39:58;3.78;;;1.35;;
13051;SDS011;6592;47.484;9.726;2022-10-18T02:42:31;3.78;;;1.40;;
13051;SDS011;6592;47.484;9.726;2022-10-18T02:45:00;3.92;;;1.38;;
13051;SDS011;6592;47.484;9.726;2022-10-18T02:47:31;4.35;;;1.30;;
13051;SDS011;6592;47.484;9.726;2022-10-18T02:50:00;4.30;;;1.65;;
13051;SDS011;6592;47.484;9.726;2022-10-18T02:52:28;3.95;;;1.38;;
13051;SDS011;6592;47.484;9.726;2022-10-18T02:54:56;2.95;;;1.40;;
13051;SDS011;6592;47.484;9.726;2022-10-18T02:57:25;3.05;;;1.48;;
13051;SDS011;6592;47.484;9.726;2022-10-18T02:59:54;6.35;;;1.70;;
13051;SDS011;6592;47.484;9.726;2022-10-18T03:02:23;4.25;;;1.60;;
13051;SDS011;6592;47.484;9.726;2022-10-18T03:04:52;2.60;;;1.27;;
13051;SDS011;6592;47.484;9.726;2022-10-18T03:07:21;3.63;;;1.10;;
13051;SDS011;6592;47.484;9.726;2022-10-18T03:09:49;3.65;;;1.50;;
13051;SDS011;6592;47.484;9.726;2022-10-18T03:12:17;6.10;;;2.10;;
13051;SDS011;6592;47.484;9.726;2022-10-18T03:14:45;4.15;;;1.88;;
13051;SDS011;6592;47.484;9.726;2022-10-18T03:17:13;9.70;;;2.35;;
13051;SDS011;6592;47.484;9.726;2022-10-18T03:19:42;5.28;;;2.30;;
13051;SDS011;6592;47.484;9.726;2022-10-18T03:22:12;3.75;;;2.15;;
13051;SDS011;6592;47.484;9.726;2022-10-18T03:24:40;7.10;;;2.42;;
13051;SDS011;6592;47.484;9.726;2022-10-18T03:27:08;3.63;;;1.95;;
13051;SDS011;6592;47.484;9.726;2022-10-18T03:29:36;4.18;;;2.17;;
13051;SDS011;6592;47.484;9.726;2022-10-18T03:32:05;3.92;;;1.70;;
13051;SDS011;6592;47.484;9.726;2022-10-18T03:34:34;3.33;;;1.50;;
13051;SDS011;6592;47.484;9.726;2022-10-18T03:37:02;3.42;;;1.52;;
13051;SDS011;6592;47.484;9.726;2022-10-18T03:39:32;3.25;;;1.38;;
13051;SDS011;6592;47.484;9.726;2022-10-18T03:42:00;4.22;;;1.38;;
13051;SDS011;6592;47.484;9.726;2022-10-18T03:44:28;2.45;;;1.30;;
13051;SDS011;6592;47.484;9.726;2022-10-18T03:46:56;4.38;;;1.52;;
13051;SDS011;6592;47.484;9.726;2022-10-18T03:49:25;5.20;;;1.30;;
13051;SDS011;6592;47.484;9.726;2022-10-18T03:51:53;4.93;;;1.50;;
13051;SDS011;6592;47.484;9.726;2022-10-18T03:54:21;7.10;;;1.35;;
13051;SDS011;6592;47.484;9.726;2022-10-18T03:56:51;2.70;;;1.42;;
13051;SDS011;6592;47.484;9.726;2022-10-18T03:59:19;4.20;;;1.40;;
13051;SDS011;6592;47.484;9.726;2022-10-18T04:01:47;4.80;;;1.40;;
13051;SDS011;6592;47.484;9.726;2022-10-18T04:04:16;4.15;;;1.25;;
13051;SDS011;6592;47.484;9.726;2022-10-18T04:06:44;3.60;;;1.50;;
13051;SDS011;6592;47.484;9.726;2022-10-18T04:09:12;3.60;;;1.42;;
13051;SDS011;6592;47.484;9.726;2022-10-18T04:11:41;3.28;;;1.48;;
13051;SDS011;6592;47.484;9.726;2022-10-18T04:14:10;4.32;;;1.40;;
13051;SDS011;6592;47.484;9.726;2022-10-18T04:16:39;3.70;;;1.30;;
13051;SDS011;6592;47.484;9.726;2022-10-18T04:19:07;2.78;;;1.33;;
13051;SDS011;6592;47.484;9.726;2022-10-18T04:21:35;4.13;;;1.23;;
13051;SDS011;6592;47.484;9.726;2022-10-18T04:24:04;4.78;;;1.35;;
13051;SDS011;6592;47.484;9.726;2022-10-18T04:26:32;3.10;;;1.33;;
13051;SDS011;6592;47.484;9.726;2022-10-18T04:29:00;3.35;;;1.55;;
13051;SDS011;6592;47.484;9.726;2022-10-18T04:31:30;3.00;;;1.27;;
13051;SDS011;6592;47.484;9.726;2022-10-18T04:33:59;4.43;;;1.50;;
13051;SDS011;6592;47.484;9.726;2022-10-18T04:36:28;4.35;;;1.33;;
13051;SDS011;6592;47.484;9.726;2022-10-18T04:38:56;4.07;;;1.52;;
13051;SDS011;6592;47.484;9.726;2022-10-18T04:41:25;3.80;;;1.10;;
13051;SDS011;6592;47.484;9.726;2022-10-18T04:43:53;3.22;;;1.40;;
13051;SDS011;6592;47.484;9.726;2022-10-18T04:46:21;3.70;;;1.63;;
13051;SDS011;6592;47.484;9.726;2022-10-18T04:48:51;4.13;;;1.35;;
13051;SDS011;6592;47.484;9.726;2022-10-18T04:51:19;4.30;;;1.40;;
13051;SDS011;6592;47.484;9.726;2022-10-18T04:53:47;2.92;;;1.40;;
13051;SDS011;6592;47.484;9.726;2022-10-18T04:56:15;3.10;;;1.38;;
13051;SDS011;6592;47.484;9.726;2022-10-18T04:58:44;3.75;;;1.48;;
13051;SDS011;6592;47.484;9.726;2022-10-18T05:01:12;4.15;;;1.52;;
13051;SDS011;6592;47.484;9.726;2022-10-18T05:03:40;3.03;;;1.27;;
13051;SDS011;6592;47.484;9.726;2022-10-18T05:06:12;3.33;;;1.30;;
13051;SDS011;6592;47.484;9.726;2022-10-18T05:08:40;3.67;;;1.20;;
13051;SDS011;6592;47.484;9.726;2022-10-18T05:11:08;2.30;;;1.38;;
13051;SDS011;6592;47.484;9.726;2022-10-18T05:13:37;3.58;;;1.17;;
13051;SDS011;6592;47.484;9.726;2022-10-18T05:16:05;3.33;;;1.33;;
13051;SDS011;6592;47.484;9.726;2022-10-18T05:18:34;6.05;;;1.48;;
13051;SDS011;6592;47.484;9.726;2022-10-18T05:21:02;3.65;;;1.45;;
13051;SDS011;6592;47.484;9.726;2022-10-18T05:23:31;4.10;;;1.48;;
13051;SDS011;6592;47.484;9.726;2022-10-18T05:26:00;4.35;;;1.73;;
13051;SDS011;6592;47.484;9.726;2022-10-18T05:28:29;2.53;;;1.42;;
13051;SDS011;6592;47.484;9.726;2022-10-18T05:31:07;3.95;;;1.70;;
13051;SDS011;6592;47.484;9.726;2022-10-18T05:33:37;3.65;;;1.95;;
13051;SDS011;6592;47.484;9.726;2022-10-18T05:36:06;3.42;;;1.80;;
13051;SDS011;6592;47.484;9.726;2022-10-18T05:38:38;3.45;;;1.58;;
13051;SDS011;6592;47.484;9.726;2022-10-18T05:41:08;4.28;;;1.73;;
13051;SDS011;6592;47.484;9.726;2022-10-18T05:43:37;5.80;;;1.30;;
13051;SDS011;6592;47.484;9.726;2022-10-18T05:46:06;4.38;;;1.65;;
13051;SDS011;6592;47.484;9.726;2022-10-18T05:48:40;4.07;;;1.85;;
13051;SDS011;6592;47.484;9.726;2022-10-18T05:51:09;3.80;;;1.55;;
13051;SDS011;6592;47.484;9.726;2022-10-18T05:53:39;2.58;;;1.42;;
13051;SDS011;6592;47.484;9.726;2022-10-18T05:56:07;3.45;;;1.42;;
13051;SDS011;6592;47.484;9.726;2022-10-18T05:58:37;5.18;;;1.90;;
13051;SDS011;6592;47.484;9.726;2022-10-18T06:01:06;3.55;;;1.88;;
13051;SDS011;6592;47.484;9.726;2022-10-18T06:03:36;4.90;;;1.63;;
13051;SDS011;6592;47.484;9.726;2022-10-18T06:06:05;6.32;;;1.70;;
13051;SDS011;6592;47.484;9.726;2022-10-18T06:08:35;4.13;;;1.63;;
13051;SDS011;6592;47.484;9.726;2022-10-18T06:11:06;2.75;;;1.45;;
13051;SDS011;6592;47.484;9.726;2022-10-18T06:13:38;3.80;;;1.60;;
13051;SDS011;6592;47.484;9.726;2022-10-18T06:16:07;4.38;;;1.60;;
13051;SDS011;6592;47.484;9.726;2022-10-18T06:18:36;5.55;;;1.50;;
13051;SDS011;6592;47.484;9.726;2022-10-18T06:21:05;3.63;;;1.70;;
13051;SDS011;6592;47.484;9.726;2022-10-18T06:23:35;3.90;;;1.40;;
13051;SDS011;6592;47.484;9.726;2022-10-18T06:26:04;3.80;;;1.70;;
13051;SDS011;6592;47.484;9.726;2022-10-18T06:28:35;4.65;;;1.67;;
13051;SDS011;6592;47.484;9.726;2022-10-18T06:31:08;3.35;;;1.65;;
13051;SDS011;6592;47.484;9.726;2022-10-18T06:33:37;3.00;;;1.65;;
13051;SDS011;6592;47.484;9.726;2022-10-18T06:36:06;2.90;;;1.50;;
13051;SDS011;6592;47.484;9.726;2022-10-18T06:38:37;5.18;;;1.60;;
13051;SDS011;6592;47.484;9.726;2022-10-18T06:41:08;4.65;;;1.67;;
13051;SDS011;6592;47.484;9.726;2022-10-18T06:46:06;2.47;;;1.40;;
13051;SDS011;6592;47.484;9.726;2022-10-18T06:48:35;3.95;;;1.65;;
13051;SDS011;6592;47.484;9.726;2022-10-18T06:51:08;3.53;;;1.35;;
13051;SDS011;6592;47.484;9.726;2022-10-18T06:53:37;2.22;;;1.30;;
13051;SDS011;6592;47.484;9.726;2022-10-18T06:56:24;5.80;;;2.00;;
13051;SDS011;6592;47.484;9.726;2022-10-18T06:58:53;3.00;;;2.00;;
13051;SDS011;6592;47.484;9.726;2022-10-18T07:01:27;4.05;;;2.05;;
13051;SDS011;6592;47.484;9.726;2022-10-18T07:03:55;7.47;;;1.98;;
13051;SDS011;6592;47.484;9.726;2022-10-18T07:06:24;4.47;;;2.10;;
13051;SDS011;6592;47.484;9.726;2022-10-18T07:08:52;3.30;;;1.75;;
13051;SDS011;6592;47.484;9.726;2022-10-18T07:11:21;4.60;;;1.48;;
13051;SDS011;6592;47.484;9.726;2022-10-18T07:13:50;3.03;;;1.48;;
13051;SDS011;6592;47.484;9.726;2022-10-18T07:16:21;4.32;;;1.42;;
13051;SDS011;6592;47.484;9.726;2022-10-18T07:18:50;4.05;;;1.60;;
13051;SDS011;6592;47.484;9.726;2022-10-18T07:21:19;5.88;;;1.50;;
13051;SDS011;6592;47.484;9.726;2022-10-18T07:23:48;5.03;;;1.40;;
13051;SDS011;6592;47.484;9.726;2022-10-18T07:26:18;2.70;;;1.40;;
13051;SDS011;6592;47.484;9.726;2022-10-18T07:28:48;2.77;;;1.47;;
13051;SDS011;6592;47.484;9.726;2022-10-18T07:31:20;3.47;;;1.55;;
13051;SDS011;6592;47.484;9.726;2022-10-18T07:33:50;3.45;;;1.50;;
13051;SDS011;6592;47.484;9.726;2022-10-18T07:36:18;4.10;;;1.45;;
13051;SDS011;6592;47.484;9.726;2022-10-18T07:38:47;3.55;;;1.55;;
13051;SDS011;6592;47.484;9.726;2022-10-18T07:41:17;2.42;;;1.30;;
13051;SDS011;6592;47.484;9.726;2022-10-18T07:43:46;4.35;;;1.70;;
13051;SDS011;6592;47.484;9.726;2022-10-18T07:46:16;4.53;;;1.70;;
13051;SDS011;6592;47.484;9.726;2022-10-18T07:48:46;4.05;;;1.77;;
13051;SDS011;6592;47.484;9.726;2022-10-18T07:51:15;5.75;;;2.60;;
13051;SDS011;6592;47.484;9.726;2022-10-18T07:53:44;5.57;;;2.45;;
13051;SDS011;6592;47.484;9.726;2022-10-18T07:56:14;5.30;;;2.60;;
13051;SDS011;6592;47.484;9.726;2022-10-18T07:58:47;6.45;;;2.60;;
13051;SDS011;6592;47.484;9.726;2022-10-18T08:01:18;5.55;;;2.85;;
13051;SDS011;6592;47.484;9.726;2022-10-18T08:03:48;6.18;;;2.72;;
13051;SDS011;6592;47.484;9.726;2022-10-18T08:06:17;7.05;;;2.83;;
13051;SDS011;6592;47.484;9.726;2022-10-18T08:08:47;7.15;;;3.22;;
13051;SDS011;6592;47.484;9.726;2022-10-18T08:11:16;17.40;;;6.28;;
13051;SDS011;6592;47.484;9.726;2022-10-18T08:13:45;11.68;;;4.40;;
13051;SDS011;6592;47.484;9.726;2022-10-18T08:16:15;6.75;;;3.13;;
13051;SDS011;6592;47.484;9.726;2022-10-18T08:18:45;8.38;;;3.13;;
13051;SDS011;6592;47.484;9.726;2022-10-18T08:21:15;4.50;;;2.15;;
13051;SDS011;6592;47.484;9.726;2022-10-18T08:23:45;5.03;;;2.10;;
13051;SDS011;6592;47.484;9.726;2022-10-18T08:26:14;3.08;;;1.58;;
13051;SDS011;6592;47.484;9.726;2022-10-18T08:28:44;6.18;;;1.90;;
13051;SDS011;6592;47.484;9.726;2022-10-18T08:31:28;5.13;;;1.70;;
13051;SDS011;6592;47.484;9.726;2022-10-18T08:33:57;3.42;;;1.83;;
13051;SDS011;6592;47.484;9.726;2022-10-18T08:36:27;3.22;;;1.65;;
13051;SDS011;6592;47.484;9.726;2022-10-18T08:38:55;4.65;;;1.70;;
13051;SDS011;6592;47.484;9.726;2022-10-18T08:41:31;3.72;;;1.67;;
13051;SDS011;6592;47.484;9.726;2022-10-18T08:44:16;4.50;;;1.70;;
13051;SDS011;6592;47.484;9.726;2022-10-18T08:46:49;7.60;;;1.90;;
13051;SDS011;6592;47.484;9.726;2022-10-18T08:49:21;5.35;;;2.03;;
13051;SDS011;6592;47.484;9.726;2022-10-18T08:51:56;4.88;;;2.08;;
13051;SDS011;6592;47.484;9.726;2022-10-18T08:54:26;3.47;;;1.70;;
13051;SDS011;6592;47.484;9.726;2022-10-18T08:56:58;4.38;;;1.90;;
13051;SDS011;6592;47.484;9.726;2022-10-18T08:59:31;3.97;;;1.80;;
13051;SDS011;6592;47.484;9.726;2022-10-18T09:02:06;3.38;;;1.85;;
13051;SDS011;6592;47.484;9.726;2022-10-18T09:04:46;4.53;;;1.70;;
13051;SDS011;6592;47.484;9.726;2022-10-18T09:07:25;2.65;;;1.45;;
13051;SDS011;6592;47.484;9.726;2022-10-18T09:10:15;2.97;;;1.75;;
13051;SDS011;6592;47.484;9.726;2022-10-18T09:12:59;2.47;;;1.30;;
13051;SDS011;6592;47.484;9.726;2022-10-18T09:15:37;3.83;;;1.40;;
13051;SDS011;6592;47.484;9.726;2022-10-18T09:18:15;4.50;;;1.73;;
13051;SDS011;6592;47.484;9.726;2022-10-18T09:20:55;3.88;;;1.85;;
13051;SDS011;6592;47.484;9.726;2022-10-18T09:23:29;3.55;;;1.83;;
13051;SDS011;6592;47.484;9.726;2022-10-18T09:26:08;4.20;;;1.70;;
13051;SDS011;6592;47.484;9.726;2022-10-18T09:28:42;3.78;;;1.20;;
13051;SDS011;6592;47.484;9.726;2022-10-18T09:31:31;3.13;;;1.60;;
13051;SDS011;6592;47.484;9.726;2022-10-18T09:34:07;3.83;;;1.58;;
13051;SDS011;6592;47.484;9.726;2022-10-18T09:36:39;2.55;;;1.80;;
13051;SDS011;6592;47.484;9.726;2022-10-18T09:39:12;3.08;;;1.85;;
13051;SDS011;6592;47.484;9.726;2022-10-18T09:41:43;4.88;;;1.90;;
13051;SDS011;6592;47.484;9.726;2022-10-18T09:44:17;3.05;;;1.65;;
13051;SDS011;6592;47.484;9.726;2022-10-18T09:46:49;4.22;;;1.80;;
13051;SDS011;6592;47.484;9.726;2022-10-18T09:49:22;4.35;;;1.80;;
13051;SDS011;6592;47.484;9.726;2022-10-18T09:51:53;3.63;;;1.90;;
13051;SDS011;6592;47.484;9.726;2022-10-18T09:54:25;3.47;;;1.60;;
13051;SDS011;6592;47.484;9.726;2022-10-18T09:57:01;2.72;;;1.75;;
13051;SDS011;6592;47.484;9.726;2022-10-18T09:59:36;2.25;;;1.45;;
13051;SDS011;6592;47.484;9.726;2022-10-18T10:02:08;3.78;;;1.50;;
13051;SDS011;6592;47.484;9.726;2022-10-18T10:04:40;4.15;;;1.85;;
13051;SDS011;6592;47.484;9.726;2022-10-18T10:07:11;2.88;;;1.70;;
13051;SDS011;6592;47.484;9.726;2022-10-18T10:09:43;2.78;;;1.70;;
13051;SDS011;6592;47.484;9.726;2022-10-18T10:12:26;3.25;;;1.60;;
13051;SDS011;6592;47.484;9.726;2022-10-18T10:15:07;3.35;;;1.75;;
13051;SDS011;6592;47.484;9.726;2022-10-18T10:17:39;3.17;;;1.63;;
13051;SDS011;6592;47.484;9.726;2022-10-18T10:20:13;3.20;;;1.70;;
13051;SDS011;6592;47.484;9.726;2022-10-18T10:22:45;3.10;;;1.80;;
13051;SDS011;6592;47.484;9.726;2022-10-18T10:25:21;2.97;;;1.80;;
13051;SDS011;6592;47.484;9.726;2022-10-18T10:27:55;3.13;;;1.93;;
13051;SDS011;6592;47.484;9.726;2022-10-18T10:30:29;7.03;;;2.10;;
13051;SDS011;6592;47.484;9.726;2022-10-18T10:32:59;3.25;;;2.13;;
13051;SDS011;6592;47.484;9.726;2022-10-18T10:35:29;5.80;;;3.30;;
13051;SDS011;6592;47.484;9.726;2022-10-18T10:38:22;5.00;;;2.78;;
13051;SDS011;6592;47.484;9.726;2022-10-18T10:40:53;4.18;;;2.70;;
13051;SDS011;6592;47.484;9.726;2022-10-18T10:43:23;5.53;;;2.50;;
13051;SDS011;6592;47.484;9.726;2022-10-18T10:46:09;5.28;;;2.50;;
13051;SDS011;6592;47.484;9.726;2022-10-18T10:48:40;4.80;;;2.65;;
13051;SDS011;6592;47.484;9.726;2022-10-18T10:51:15;4.53;;;2.47;;
13051;SDS011;6592;47.484;9.726;2022-10-18T10:53:56;4.20;;;2.63;;
13051;SDS011;6592;47.484;9.726;2022-10-18T10:56:29;3.75;;;2.33;;
13051;SDS011;6592;47.484;9.726;2022-10-18T10:59:00;2.92;;;2.10;;
13051;SDS011;6592;47.484;9.726;2022-10-18T11:01:35;3.70;;;2.20;;
13051;SDS011;6592;47.484;9.726;2022-10-18T11:09:50;5.00;;;3.28;;
13051;SDS011;6592;47.484;9.726;2022-10-18T11:12:30;6.37;;;3.37;;
13051;SDS011;6592;47.484;9.726;2022-10-18T11:15:06;5.45;;;3.60;;
13051;SDS011;6592;47.484;9.726;2022-10-18T11:17:45;5.03;;;3.33;;
13051;SDS011;6592;47.484;9.726;2022-10-18T11:20:23;4.57;;;3.10;;
13051;SDS011;6592;47.484;9.726;2022-10-18T11:22:58;4.57;;;2.85;;
13051;SDS011;6592;47.484;9.726;2022-10-18T11:25:33;5.45;;;2.80;;
13051;SDS011;6592;47.484;9.726;2022-10-18T11:28:23;5.88;;;3.15;;
13051;SDS011;6592;47.484;9.726;2022-10-18T11:31:05;4.72;;;2.80;;
13051;SDS011;6592;47.484;9.726;2022-10-18T11:33:51;4.07;;;2.60;;
13051;SDS011;6592;47.484;9.726;2022-10-18T11:36:37;4.32;;;2.80;;
13051;SDS011;6592;47.484;9.726;2022-10-18T11:39:23;3.33;;;2.42;;
13051;SDS011;6592;47.484;9.726;2022-10-18T11:42:02;3.15;;;2.40;;
13051;SDS011;6592;47.484;9.726;2022-10-18T11:44:41;3.60;;;2.40;;
13051;SDS011;6592;47.484;9.726;2022-10-18T11:47:17;5.38;;;2.83;;
13051;SDS011;6592;47.484;9.726;2022-10-18T11:49:55;3.72;;;2.10;;
13051;SDS011;6592;47.484;9.726;2022-10-18T11:55:09;2.72;;;1.75;;
13051;SDS011;6592;47.484;9.726;2022-10-18T11:57:59;3.00;;;1.92;;
13051;SDS011;6592;47.484;9.726;2022-10-18T12:00:37;3.53;;;2.08;;
13051;SDS011;6592;47.484;9.726;2022-10-18T12:06:13;3.67;;;2.10;;
13051;SDS011;6592;47.484;9.726;2022-10-18T12:08:45;4.63;;;2.17;;
13051;SDS011;6592;47.484;9.726;2022-10-18T12:11:17;5.40;;;2.17;;
13051;SDS011;6592;47.484;9.726;2022-10-18T12:13:50;3.22;;;1.92;;
13051;SDS011;6592;47.484;9.726;2022-10-18T12:16:24;4.63;;;2.40;;
13051;SDS011;6592;47.484;9.726;2022-10-18T12:19:16;2.92;;;2.17;;
13051;SDS011;6592;47.484;9.726;2022-10-18T12:21:52;5.45;;;2.10;;
13051;SDS011;6592;47.484;9.726;2022-10-18T12:24:24;2.97;;;1.95;;
13051;SDS011;6592;47.484;9.726;2022-10-18T12:26:56;5.43;;;1.88;;
13051;SDS011;6592;47.484;9.726;2022-10-18T12:29:26;6.57;;;1.98;;
13051;SDS011;6592;47.484;9.726;2022-10-18T12:32:02;4.35;;;1.98;;
13051;SDS011;6592;47.484;9.726;2022-10-18T12:34:37;3.03;;;1.90;;
13051;SDS011;6592;47.484;9.726;2022-10-18T12:40:10;4.43;;;2.10;;
13051;SDS011;6592;47.484;9.726;2022-10-18T12:42:47;3.55;;;2.05;;
13051;SDS011;6592;47.484;9.726;2022-10-18T12:45:19;3.45;;;1.77;;
13051;SDS011;6592;47.484;9.726;2022-10-18T12:47:55;3.60;;;2.10;;
13051;SDS011;6592;47.484;9.726;2022-10-18T12:50:30;5.43;;;2.25;;
13051;SDS011;6592;47.484;9.726;2022-10-18T12:53:02;3.55;;;1.90;;
13051;SDS011;6592;47.484;9.726;2022-10-18T12:55:34;2.97;;;1.80;;
13051;SDS011;6592;47.484;9.726;2022-10-18T12:58:05;4.63;;;1.95;;
13051;SDS011;6592;47.484;9.726;2022-10-18T13:00:53;3.38;;;1.98;;
13051;SDS011;6592;47.484;9.726;2022-10-18T13:06:24;2.88;;;1.77;;
13051;SDS011;6592;47.484;9.726;2022-10-18T13:09:16;2.95;;;2.10;;
13051;SDS011;6592;47.484;9.726;2022-10-18T13:11:47;4.28;;;1.92;;
13051;SDS011;6592;47.484;9.726;2022-10-18T13:14:21;4.15;;;1.80;;
13051;SDS011;6592;47.484;9.726;2022-10-18T13:17:33;3.03;;;1.98;;
13051;SDS011;6592;47.484;9.726;2022-10-18T13:20:13;3.60;;;2.08;;
13051;SDS011;6592;47.484;9.726;2022-10-18T13:23:04;3.53;;;1.83;;
13051;SDS011;6592;47.484;9.726;2022-10-18T13:25:45;3.78;;;2.20;;
13051;SDS011;6592;47.484;9.726;2022-10-18T13:28:24;3.92;;;2.22;;
13051;SDS011;6592;47.484;9.726;2022-10-18T13:30:59;5.35;;;2.38;;
13051;SDS011;6592;47.484;9.726;2022-10-18T13:33:31;5.07;;;2.45;;
13051;SDS011;6592;47.484;9.726;2022-10-18T13:36:03;4.40;;;2.30;;
13051;SDS011;6592;47.484;9.726;2022-10-18T13:38:40;3.17;;;2.03;;
13051;SDS011;6592;47.484;9.726;2022-10-18T13:41:13;3.92;;;2.10;;
13051;SDS011;6592;47.484;9.726;2022-10-18T13:53:10;4.20;;;2.20;;
13051;SDS011;6592;47.484;9.726;2022-10-18T13:55:56;3.83;;;2.20;;
13051;SDS011;6592;47.484;9.726;2022-10-18T13:58:42;4.18;;;2.13;;
13051;SDS011;6592;47.484;9.726;2022-10-18T14:01:39;5.60;;;2.38;;
13051;SDS011;6592;47.484;9.726;2022-10-18T14:04:29;3.45;;;2.20;;
13051;SDS011;6592;47.484;9.726;2022-10-18T14:07:06;3.75;;;2.20;;
13051;SDS011;6592;47.484;9.726;2022-10-18T14:09:42;4.63;;;2.53;;
13051;SDS011;6592;47.484;9.726;2022-10-18T14:12:20;5.82;;;2.40;;
13051;SDS011;6592;47.484;9.726;2022-10-18T14:14:54;3.47;;;2.50;;
13051;SDS011;6592;47.484;9.726;2022-10-18T14:17:28;6.55;;;2.92;;
13051;SDS011;6592;47.484;9.726;2022-10-18T14:20:03;6.22;;;2.67;;
13051;SDS011;6592;47.484;9.726;2022-10-18T14:22:42;4.70;;;2.70;;
13051;SDS011;6592;47.484;9.726;2022-10-18T14:25:19;5.65;;;2.72;;
13051;SDS011;6592;47.484;9.726;2022-10-18T14:28:01;3.63;;;2.20;;
13051;SDS011;6592;47.484;9.726;2022-10-18T14:30:48;4.82;;;2.72;;
13051;SDS011;6592;47.484;9.726;2022-10-18T14:33:26;3.17;;;2.20;;
13051;SDS011;6592;47.484;9.726;2022-10-18T14:35:57;6.22;;;2.30;;
13051;SDS011;6592;47.484;9.726;2022-10-18T14:38:28;4.85;;;2.50;;
13051;SDS011;6592;47.484;9.726;2022-10-18T14:41:12;4.35;;;2.30;;
13051;SDS011;6592;47.484;9.726;2022-10-18T14:43:42;3.85;;;2.30;;
13051;SDS011;6592;47.484;9.726;2022-10-18T14:46:18;6.18;;;2.38;;
13051;SDS011;6592;47.484;9.726;2022-10-18T14:48:55;6.25;;;2.47;;
13051;SDS011;6592;47.484;9.726;2022-10-18T14:51:25;4.65;;;2.50;;
13051;SDS011;6592;47.484;9.726;2022-10-18T14:53:55;4.18;;;2.78;;
13051;SDS011;6592;47.484;9.726;2022-10-18T14:56:28;4.40;;;2.65;;
13051;SDS011;6592;47.484;9.726;2022-10-18T14:58:59;4.72;;;2.70;;
13051;SDS011;6592;47.484;9.726;2022-10-18T15:01:30;4.32;;;2.50;;
13051;SDS011;6592;47.484;9.726;2022-10-18T15:04:03;5.05;;;2.72;;
13051;SDS011;6592;47.484;9.726;2022-10-18T15:06:36;5.28;;;2.28;;
13051;SDS011;6592;47.484;9.726;2022-10-18T15:09:10;4.13;;;2.30;;
13051;SDS011;6592;47.484;9.726;2022-10-18T15:11:40;5.07;;;2.83;;
13051;SDS011;6592;47.484;9.726;2022-10-18T15:14:12;4.90;;;2.42;;
13051;SDS011;6592;47.484;9.726;2022-10-18T15:16:43;3.60;;;2.08;;
13051;SDS011;6592;47.484;9.726;2022-10-18T15:19:29;4.10;;;2.20;;
13051;SDS011;6592;47.484;9.726;2022-10-18T15:22:00;5.95;;;2.25;;
13051;SDS011;6592;47.484;9.726;2022-10-18T15:27:36;3.90;;;2.20;;
13051;SDS011;6592;47.484;9.726;2022-10-18T15:30:11;4.25;;;2.15;;
13051;SDS011;6592;47.484;9.726;2022-10-18T15:32:47;5.05;;;2.30;;
13051;SDS011;6592;47.484;9.726;2022-10-18T15:35:18;4.65;;;2.50;;
13051;SDS011;6592;47.484;9.726;2022-10-18T15:37:52;4.85;;;2.45;;
13051;SDS011;6592;47.484;9.726;2022-10-18T15:40:31;6.80;;;2.60;;
13051;SDS011;6592;47.484;9.726;2022-10-18T15:43:03;5.15;;;2.30;;
13051;SDS011;6592;47.484;9.726;2022-10-18T15:45:53;3.80;;;2.40;;
13051;SDS011;6592;47.484;9.726;2022-10-18T15:48:31;5.38;;;2.80;;
13051;SDS011;6592;47.484;9.726;2022-10-18T15:51:02;5.55;;;2.67;;
13051;SDS011;6592;47.484;9.726;2022-10-18T15:53:41;5.28;;;2.60;;
13051;SDS011;6592;47.484;9.726;2022-10-18T15:56:24;5.03;;;2.60;;
13051;SDS011;6592;47.484;9.726;2022-10-18T15:58:59;4.75;;;3.03;;
13051;SDS011;6592;47.484;9.726;2022-10-18T16:01:34;6.15;;;2.90;;
13051;SDS011;6592;47.484;9.726;2022-10-18T16:04:06;4.78;;;2.55;;
13051;SDS011;6592;47.484;9.726;2022-10-18T16:06:37;4.00;;;2.40;;
13051;SDS011;6592;47.484;9.726;2022-10-18T16:09:05;6.35;;;3.05;;
13051;SDS011;6592;47.484;9.726;2022-10-18T16:11:37;4.90;;;3.00;;
13051;SDS011;6592;47.484;9.726;2022-10-18T16:14:06;7.60;;;3.28;;